sensor_id;sensor_type;location;lat;lon;timestamp;pressure;altitude;pressure_sealevel;temperature;humidity
76728;BME280;65652;53.132;18.026;2023-06-14T00:01:58;101446.17;;;16.33;57.40
76728;BME280;65652;53.132;18.026;2023-06-14T00:04:25;101447.33;;;16.36;57.50
76728;BME280;65652;53.132;18.026;2023-06-14T00:06:52;101446.80;;;16.37;57.45
76728;BME280;65652;53.132;18.026;2023-06-14T00:09:19;101446.06;;;16.40;57.39
76728;BME280;65652;53.132;18.026;2023-06-14T00:11:46;101438.52;;;16.42;57.53
76728;BME280;65652;53.132;18.026;2023-06-14T00:14:13;101434.91;;;16.44;57.62
76728;BME280;65652;53.132;18.026;2023-06-14T00:16:40;101433.34;;;16.45;57.61
76728;BME280;65652;53.132;18.026;2023-06-14T00:19:09;101434.38;;;16.48;57.59
76728;BME280;65652;53.132;18.026;2023-06-14T00:21:37;101435.21;;;16.48;57.64
76728;BME280;65652;53.132;18.026;2023-06-14T00:24:04;101432.56;;;16.48;57.64
76728;BME280;65652;53.132;18.026;2023-06-14T00:26:31;101433.84;;;16.48;57.68
76728;BME280;65652;53.132;18.026;2023-06-14T00:28:58;101436.90;;;16.47;57.82
76728;BME280;65652;53.132;18.026;2023-06-14T00:31:27;101434.15;;;16.48;57.89
76728;BME280;65652;53.132;18.026;2023-06-14T00:33:54;101430.74;;;16.47;58.05
76728;BME280;65652;53.132;18.026;2023-06-14T00:36:21;101431.64;;;16.45;58.33
76728;BME280;65652;53.132;18.026;2023-06-14T00:38:48;101427.52;;;16.43;58.23
76728;BME280;65652;53.132;18.026;2023-06-14T00:41:15;101424.48;;;16.43;58.40
76728;BME280;65652;53.132;18.026;2023-06-14T00:43:43;101419.02;;;16.44;58.44
76728;BME280;65652;53.132;18.026;2023-06-14T00:46:09;101417.46;;;16.46;58.53
76728;BME280;65652;53.132;18.026;2023-06-14T00:48:38;101415.64;;;16.46;58.53
76728;BME280;65652;53.132;18.026;2023-06-14T00:51:06;101415.90;;;16.47;58.58
76728;BME280;65652;53.132;18.026;2023-06-14T00:53:33;101409.85;;;16.47;58.61
76728;BME280;65652;53.132;18.026;2023-06-14T00:56:02;101404.33;;;16.45;58.65
76728;BME280;65652;53.132;18.026;2023-06-14T00:58:30;101403.44;;;16.43;58.63
76728;BME280;65652;53.132;18.026;2023-06-14T01:00:57;101406.79;;;16.44;58.69
76728;BME280;65652;53.132;18.026;2023-06-14T01:03:24;101403.17;;;16.44;58.69
76728;BME280;65652;53.132;18.026;2023-06-14T01:06:02;101402.15;;;16.45;58.81
76728;BME280;65652;53.132;18.026;2023-06-14T01:08:42;101392.86;;;16.46;58.86
76728;BME280;65652;53.132;18.026;2023-06-14T01:11:20;101389.48;;;16.44;58.82
76728;BME280;65652;53.132;18.026;2023-06-14T01:13:50;101386.11;;;16.42;59.12
76728;BME280;65652;53.132;18.026;2023-06-14T01:16:19;101376.91;;;16.41;59.49
76728;BME280;65652;53.132;18.026;2023-06-14T01:18:46;101377.70;;;16.41;59.79
76728;BME280;65652;53.132;18.026;2023-06-14T01:21:25;101379.90;;;16.40;60.15
76728;BME280;65652;53.132;18.026;2023-06-14T01:23:52;101379.81;;;16.39;60.39
76728;BME280;65652;53.132;18.026;2023-06-14T01:26:21;101379.66;;;16.38;60.48
76728;BME280;65652;53.132;18.026;2023-06-14T01:28:49;101382.98;;;16.37;60.51
76728;BME280;65652;53.132;18.026;2023-06-14T01:31:20;101383.78;;;16.37;60.41
76728;BME280;65652;53.132;18.026;2023-06-14T01:33:51;101381.20;;;16.37;60.41
76728;BME280;65652;53.132;18.026;2023-06-14T01:36:19;101382.92;;;16.38;60.44
76728;BME280;65652;53.132;18.026;2023-06-14T01:38:47;101381.16;;;16.38;60.47
76728;BME280;65652;53.132;18.026;2023-06-14T01:41:17;101381.11;;;16.37;60.44
76728;BME280;65652;53.132;18.026;2023-06-14T01:43:45;101377.48;;;16.35;60.49
76728;BME280;65652;53.132;18.026;2023-06-14T01:46:15;101375.70;;;16.34;60.40
76728;BME280;65652;53.132;18.026;2023-06-14T01:48:42;101372.30;;;16.32;60.51
76728;BME280;65652;53.132;18.026;2023-06-14T01:51:09;101373.29;;;16.29;60.52
76728;BME280;65652;53.132;18.026;2023-06-14T01:53:36;101372.20;;;16.28;60.60
76728;BME280;65652;53.132;18.026;2023-06-14T01:56:03;101373.81;;;16.26;60.70
76728;BME280;65652;53.132;18.026;2023-06-14T01:58:31;101367.05;;;16.24;60.69
76728;BME280;65652;53.132;18.026;2023-06-14T02:01:00;101364.19;;;16.22;60.79
76728;BME280;65652;53.132;18.026;2023-06-14T02:03:28;101359.16;;;16.21;60.59
76728;BME280;65652;53.132;18.026;2023-06-14T02:05:55;101364.39;;;16.19;60.47
76728;BME280;65652;53.132;18.026;2023-06-14T02:08:22;101361.77;;;16.17;60.61
76728;BME280;65652;53.132;18.026;2023-06-14T02:10:50;101363.43;;;16.14;60.60
76728;BME280;65652;53.132;18.026;2023-06-14T02:13:17;101360.27;;;16.12;60.76
76728;BME280;65652;53.132;18.026;2023-06-14T02:15:43;101360.42;;;16.08;60.94
76728;BME280;65652;53.132;18.026;2023-06-14T02:18:11;101359.31;;;16.05;60.88
76728;BME280;65652;53.132;18.026;2023-06-14T02:20:38;101366.58;;;16.00;60.81
76728;BME280;65652;53.132;18.026;2023-06-14T02:23:05;101363.34;;;15.97;60.83
76728;BME280;65652;53.132;18.026;2023-06-14T02:25:34;101368.46;;;15.92;60.74
76728;BME280;65652;53.132;18.026;2023-06-14T02:28:01;101377.79;;;15.90;60.77
76728;BME280;65652;53.132;18.026;2023-06-14T02:30:28;101363.77;;;15.88;60.93
76728;BME280;65652;53.132;18.026;2023-06-14T02:32:56;101371.23;;;15.84;60.91
76728;BME280;65652;53.132;18.026;2023-06-14T02:35:23;101378.33;;;15.81;60.97
76728;BME280;65652;53.132;18.026;2023-06-14T02:37:53;101365.43;;;15.78;60.82
76728;BME280;65652;53.132;18.026;2023-06-14T02:40:23;101364.27;;;15.76;60.80
76728;BME280;65652;53.132;18.026;2023-06-14T02:42:50;101366.77;;;15.76;60.72
76728;BME280;65652;53.132;18.026;2023-06-14T02:45:17;101367.52;;;15.77;60.81
76728;BME280;65652;53.132;18.026;2023-06-14T02:47:45;101364.86;;;15.79;60.92
76728;BME280;65652;53.132;18.026;2023-06-14T02:50:13;101362.84;;;15.77;60.93
76728;BME280;65652;53.132;18.026;2023-06-14T02:52:40;101359.77;;;15.76;60.84
76728;BME280;65652;53.132;18.026;2023-06-14T02:55:09;101351.27;;;15.76;61.03
76728;BME280;65652;53.132;18.026;2023-06-14T02:57:36;101349.33;;;15.75;60.99
76728;BME280;65652;53.132;18.026;2023-06-14T03:00:04;101348.46;;;15.73;61.16
76728;BME280;65652;53.132;18.026;2023-06-14T03:02:31;101347.73;;;15.73;61.02
76728;BME280;65652;53.132;18.026;2023-06-14T03:04:58;101347.87;;;15.74;61.07
76728;BME280;65652;53.132;18.026;2023-06-14T03:07:28;101340.73;;;15.74;61.22
76728;BME280;65652;53.132;18.026;2023-06-14T03:09:57;101339.62;;;15.76;61.29
76728;BME280;65652;53.132;18.026;2023-06-14T03:12:24;101343.16;;;15.77;61.55
76728;BME280;65652;53.132;18.026;2023-06-14T03:14:51;101341.70;;;15.75;61.63
76728;BME280;65652;53.132;18.026;2023-06-14T03:17:20;101337.48;;;15.73;61.53
76728;BME280;65652;53.132;18.026;2023-06-14T03:19:47;101340.96;;;15.72;61.81
76728;BME280;65652;53.132;18.026;2023-06-14T03:22:14;101341.22;;;15.71;61.60
76728;BME280;65652;53.132;18.026;2023-06-14T03:24:41;101346.30;;;15.70;61.66
76728;BME280;65652;53.132;18.026;2023-06-14T03:27:10;101344.40;;;15.68;61.70
76728;BME280;65652;53.132;18.026;2023-06-14T03:29:41;101344.13;;;15.67;61.61
76728;BME280;65652;53.132;18.026;2023-06-14T03:32:08;101351.08;;;15.67;61.69
76728;BME280;65652;53.132;18.026;2023-06-14T03:34:37;101350.41;;;15.68;61.73
76728;BME280;65652;53.132;18.026;2023-06-14T03:37:09;101350.52;;;15.69;61.70
76728;BME280;65652;53.132;18.026;2023-06-14T03:39:36;101353.48;;;15.68;61.70
76728;BME280;65652;53.132;18.026;2023-06-14T03:42:03;101351.71;;;15.68;61.77
76728;BME280;65652;53.132;18.026;2023-06-14T03:44:31;101349.44;;;15.67;61.84
76728;BME280;65652;53.132;18.026;2023-06-14T03:46:57;101350.68;;;15.65;62.12
76728;BME280;65652;53.132;18.026;2023-06-14T03:49:25;101353.46;;;15.66;62.44
76728;BME280;65652;53.132;18.026;2023-06-14T03:51:52;101351.24;;;15.65;62.27
76728;BME280;65652;53.132;18.026;2023-06-14T03:54:22;101355.49;;;15.63;62.38
76728;BME280;65652;53.132;18.026;2023-06-14T03:56:49;101356.45;;;15.63;62.69
76728;BME280;65652;53.132;18.026;2023-06-14T03:59:16;101356.21;;;15.62;62.91
76728;BME280;65652;53.132;18.026;2023-06-14T04:01:43;101357.27;;;15.60;62.88
76728;BME280;65652;53.132;18.026;2023-06-14T04:04:11;101359.60;;;15.60;63.00
76728;BME280;65652;53.132;18.026;2023-06-14T04:06:38;101368.82;;;15.60;63.19
76728;BME280;65652;53.132;18.026;2023-06-14T04:09:08;101372.89;;;15.60;63.14
76728;BME280;65652;53.132;18.026;2023-06-14T04:11:35;101377.27;;;15.61;62.85
76728;BME280;65652;53.132;18.026;2023-06-14T04:14:03;101374.77;;;15.61;62.74
76728;BME280;65652;53.132;18.026;2023-06-14T04:16:30;101369.38;;;15.60;62.76
76728;BME280;65652;53.132;18.026;2023-06-14T04:18:57;101369.89;;;15.59;62.96
76728;BME280;65652;53.132;18.026;2023-06-14T04:21:24;101373.99;;;15.58;63.21
76728;BME280;65652;53.132;18.026;2023-06-14T04:23:54;101378.63;;;15.60;63.62
76728;BME280;65652;53.132;18.026;2023-06-14T04:26:24;101383.03;;;15.62;63.35
76728;BME280;65652;53.132;18.026;2023-06-14T04:28:56;101380.32;;;15.65;63.58
76728;BME280;65652;53.132;18.026;2023-06-14T04:31:29;101375.36;;;15.66;63.74
76728;BME280;65652;53.132;18.026;2023-06-14T04:33:56;101375.52;;;15.68;63.75
76728;BME280;65652;53.132;18.026;2023-06-14T04:36:23;101376.88;;;15.71;63.94
76728;BME280;65652;53.132;18.026;2023-06-14T04:38:51;101375.08;;;15.73;63.79
76728;BME280;65652;53.132;18.026;2023-06-14T04:41:21;101375.11;;;15.76;63.93
76728;BME280;65652;53.132;18.026;2023-06-14T04:43:49;101377.20;;;15.80;64.06
76728;BME280;65652;53.132;18.026;2023-06-14T04:46:17;101380.34;;;15.84;63.86
76728;BME280;65652;53.132;18.026;2023-06-14T04:48:44;101380.55;;;15.89;63.83
76728;BME280;65652;53.132;18.026;2023-06-14T04:51:12;101379.14;;;15.94;63.87
76728;BME280;65652;53.132;18.026;2023-06-14T04:53:39;101376.55;;;16.01;63.67
76728;BME280;65652;53.132;18.026;2023-06-14T04:56:06;101372.52;;;16.07;63.46
76728;BME280;65652;53.132;18.026;2023-06-14T04:58:34;101371.98;;;16.14;63.24
76728;BME280;65652;53.132;18.026;2023-06-14T05:01:00;101368.40;;;16.19;63.10
76728;BME280;65652;53.132;18.026;2023-06-14T05:03:29;101364.27;;;16.27;63.01
76728;BME280;65652;53.132;18.026;2023-06-14T05:05:57;101366.42;;;16.36;62.91
76728;BME280;65652;53.132;18.026;2023-06-14T05:08:24;101365.73;;;16.43;62.86
76728;BME280;65652;53.132;18.026;2023-06-14T05:10:51;101366.27;;;16.48;62.66
76728;BME280;65652;53.132;18.026;2023-06-14T05:13:18;101359.91;;;16.52;62.40
76728;BME280;65652;53.132;18.026;2023-06-14T05:15:46;101356.60;;;16.55;62.33
76728;BME280;65652;53.132;18.026;2023-06-14T05:18:14;101352.42;;;16.56;62.13
76728;BME280;65652;53.132;18.026;2023-06-14T05:20:42;101354.16;;;16.56;62.02
76728;BME280;65652;53.132;18.026;2023-06-14T05:23:09;101362.41;;;16.59;62.13
76728;BME280;65652;53.132;18.026;2023-06-14T05:25:42;101377.61;;;16.61;61.99
76728;BME280;65652;53.132;18.026;2023-06-14T05:28:10;101389.28;;;16.63;62.05
76728;BME280;65652;53.132;18.026;2023-06-14T05:30:38;101391.20;;;16.66;62.01
76728;BME280;65652;53.132;18.026;2023-06-14T05:33:05;101390.48;;;16.69;61.93
76728;BME280;65652;53.132;18.026;2023-06-14T05:35:32;101387.60;;;16.71;61.87
76728;BME280;65652;53.132;18.026;2023-06-14T05:37:59;101381.16;;;16.73;62.09
76728;BME280;65652;53.132;18.026;2023-06-14T05:40:26;101369.70;;;16.73;62.15
76728;BME280;65652;53.132;18.026;2023-06-14T05:42:53;101360.81;;;16.73;62.01
76728;BME280;65652;53.132;18.026;2023-06-14T05:45:19;101350.95;;;16.72;62.00
76728;BME280;65652;53.132;18.026;2023-06-14T05:47:46;101344.48;;;16.69;61.97
76728;BME280;65652;53.132;18.026;2023-06-14T05:50:14;101346.31;;;16.65;62.04
76728;BME280;65652;53.132;18.026;2023-06-14T05:52:40;101350.60;;;16.66;62.08
76728;BME280;65652;53.132;18.026;2023-06-14T05:55:08;101348.23;;;16.72;62.13
76728;BME280;65652;53.132;18.026;2023-06-14T05:57:35;101344.05;;;16.80;62.03
76728;BME280;65652;53.132;18.026;2023-06-14T06:00:02;101341.67;;;16.87;61.86
76728;BME280;65652;53.132;18.026;2023-06-14T06:02:39;101335.42;;;16.92;61.53
76728;BME280;65652;53.132;18.026;2023-06-14T06:05:06;101337.60;;;16.92;61.31
76728;BME280;65652;53.132;18.026;2023-06-14T06:07:33;101342.56;;;16.97;61.29
76728;BME280;65652;53.132;18.026;2023-06-14T06:10:00;101342.13;;;17.08;61.08
76728;BME280;65652;53.132;18.026;2023-06-14T06:12:27;101346.45;;;17.16;60.58
76728;BME280;65652;53.132;18.026;2023-06-14T06:14:53;101351.82;;;17.25;60.51
76728;BME280;65652;53.132;18.026;2023-06-14T06:17:20;101350.89;;;17.33;60.13
76728;BME280;65652;53.132;18.026;2023-06-14T06:19:47;101352.84;;;17.42;59.81
76728;BME280;65652;53.132;18.026;2023-06-14T06:22:14;101349.77;;;17.51;59.56
76728;BME280;65652;53.132;18.026;2023-06-14T06:24:41;101358.34;;;17.59;59.32
76728;BME280;65652;53.132;18.026;2023-06-14T06:27:07;101359.05;;;17.67;59.26
76728;BME280;65652;53.132;18.026;2023-06-14T06:29:35;101360.80;;;17.78;59.06
76728;BME280;65652;53.132;18.026;2023-06-14T06:32:02;101362.72;;;17.93;58.80
76728;BME280;65652;53.132;18.026;2023-06-14T06:34:29;101367.48;;;18.10;58.73
76728;BME280;65652;53.132;18.026;2023-06-14T06:36:56;101365.90;;;18.24;58.07
76728;BME280;65652;53.132;18.026;2023-06-14T06:39:23;101365.68;;;18.36;58.04
76728;BME280;65652;53.132;18.026;2023-06-14T06:41:50;101368.36;;;18.51;57.75
76728;BME280;65652;53.132;18.026;2023-06-14T06:44:25;101369.84;;;18.65;57.25
76728;BME280;65652;53.132;18.026;2023-06-14T06:46:52;101368.70;;;18.76;56.99
76728;BME280;65652;53.132;18.026;2023-06-14T06:49:19;101367.46;;;18.84;56.46
76728;BME280;65652;53.132;18.026;2023-06-14T06:51:59;101372.29;;;18.89;56.32
76728;BME280;65652;53.132;18.026;2023-06-14T06:54:27;101381.30;;;18.97;56.24
76728;BME280;65652;53.132;18.026;2023-06-14T06:56:54;101377.66;;;19.03;55.99
76728;BME280;65652;53.132;18.026;2023-06-14T06:59:21;101378.13;;;19.10;55.99
76728;BME280;65652;53.132;18.026;2023-06-14T07:01:48;101379.59;;;19.16;55.52
76728;BME280;65652;53.132;18.026;2023-06-14T07:04:15;101377.48;;;19.20;55.36
76728;BME280;65652;53.132;18.026;2023-06-14T07:06:43;101384.41;;;19.25;55.18
76728;BME280;65652;53.132;18.026;2023-06-14T07:09:10;101383.98;;;19.28;55.03
76728;BME280;65652;53.132;18.026;2023-06-14T07:11:42;101382.85;;;19.32;55.01
76728;BME280;65652;53.132;18.026;2023-06-14T07:14:09;101383.07;;;19.36;54.85
76728;BME280;65652;53.132;18.026;2023-06-14T07:16:37;101387.90;;;19.40;54.80
76728;BME280;65652;53.132;18.026;2023-06-14T07:19:05;101394.13;;;19.44;54.82
76728;BME280;65652;53.132;18.026;2023-06-14T07:21:31;101395.60;;;19.47;54.34
76728;BME280;65652;53.132;18.026;2023-06-14T07:23:58;101398.34;;;19.50;54.13
76728;BME280;65652;53.132;18.026;2023-06-14T07:26:25;101402.40;;;19.52;53.95
76728;BME280;65652;53.132;18.026;2023-06-14T07:28:52;101404.17;;;19.55;53.69
76728;BME280;65652;53.132;18.026;2023-06-14T07:31:19;101399.64;;;19.59;53.62
76728;BME280;65652;53.132;18.026;2023-06-14T07:33:46;101393.00;;;19.62;53.34
76728;BME280;65652;53.132;18.026;2023-06-14T07:36:13;101389.89;;;19.66;53.06
76728;BME280;65652;53.132;18.026;2023-06-14T07:38:40;101394.48;;;19.69;53.08
76728;BME280;65652;53.132;18.026;2023-06-14T07:41:07;101385.23;;;19.72;52.67
76728;BME280;65652;53.132;18.026;2023-06-14T07:43:34;101381.52;;;19.71;52.58
76728;BME280;65652;53.132;18.026;2023-06-14T07:46:01;101383.42;;;19.70;52.64
76728;BME280;65652;53.132;18.026;2023-06-14T07:48:29;101370.64;;;19.72;52.66
76728;BME280;65652;53.132;18.026;2023-06-14T07:50:56;101362.56;;;19.74;52.49
76728;BME280;65652;53.132;18.026;2023-06-14T07:53:22;101361.38;;;19.73;52.51
76728;BME280;65652;53.132;18.026;2023-06-14T07:55:49;101371.19;;;19.75;52.58
76728;BME280;65652;53.132;18.026;2023-06-14T07:58:17;101375.09;;;19.82;52.75
76728;BME280;65652;53.132;18.026;2023-06-14T08:00:44;101368.16;;;19.91;52.58
76728;BME280;65652;53.132;18.026;2023-06-14T08:03:11;101364.41;;;19.99;52.28
76728;BME280;65652;53.132;18.026;2023-06-14T08:05:38;101362.02;;;20.06;51.87
76728;BME280;65652;53.132;18.026;2023-06-14T08:08:05;101362.77;;;20.11;51.85
76728;BME280;65652;53.132;18.026;2023-06-14T08:10:31;101362.84;;;20.13;51.68
76728;BME280;65652;53.132;18.026;2023-06-14T08:12:58;101361.95;;;20.14;51.55
76728;BME280;65652;53.132;18.026;2023-06-14T08:15:25;101363.96;;;20.17;51.32
76728;BME280;65652;53.132;18.026;2023-06-14T08:17:52;101370.70;;;20.16;51.39
76728;BME280;65652;53.132;18.026;2023-06-14T08:20:19;101373.30;;;20.16;51.34
76728;BME280;65652;53.132;18.026;2023-06-14T08:22:46;101374.42;;;20.11;51.22
76728;BME280;65652;53.132;18.026;2023-06-14T08:25:14;101376.73;;;20.08;51.30
76728;BME280;65652;53.132;18.026;2023-06-14T08:27:41;101378.20;;;20.08;51.41
76728;BME280;65652;53.132;18.026;2023-06-14T08:30:08;101380.20;;;20.13;51.42
76728;BME280;65652;53.132;18.026;2023-06-14T08:32:36;101369.16;;;20.19;51.05
76728;BME280;65652;53.132;18.026;2023-06-14T08:35:04;101360.58;;;20.14;50.85
76728;BME280;65652;53.132;18.026;2023-06-14T08:37:32;101365.35;;;20.07;51.30
76728;BME280;65652;53.132;18.026;2023-06-14T08:40:02;101373.83;;;20.10;51.31
76728;BME280;65652;53.132;18.026;2023-06-14T08:42:32;101382.27;;;20.16;51.24
76728;BME280;65652;53.132;18.026;2023-06-14T08:44:59;101383.75;;;20.22;50.71
76728;BME280;65652;53.132;18.026;2023-06-14T08:47:27;101381.91;;;20.29;50.81
76728;BME280;65652;53.132;18.026;2023-06-14T08:49:56;101378.45;;;20.39;50.71
76728;BME280;65652;53.132;18.026;2023-06-14T08:52:25;101380.88;;;20.50;50.44
76728;BME280;65652;53.132;18.026;2023-06-14T08:54:56;101379.89;;;20.64;50.33
76728;BME280;65652;53.132;18.026;2023-06-14T08:57:24;101379.39;;;20.80;49.95
76728;BME280;65652;53.132;18.026;2023-06-14T08:59:52;101374.66;;;20.96;49.84
76728;BME280;65652;53.132;18.026;2023-06-14T09:02:20;101374.36;;;21.16;49.55
76728;BME280;65652;53.132;18.026;2023-06-14T09:04:48;101375.04;;;21.45;49.11
76728;BME280;65652;53.132;18.026;2023-06-14T09:07:18;101377.18;;;21.73;48.85
76728;BME280;65652;53.132;18.026;2023-06-14T09:09:45;101379.30;;;21.96;48.42
76728;BME280;65652;53.132;18.026;2023-06-14T09:12:12;101381.80;;;22.06;47.66
76728;BME280;65652;53.132;18.026;2023-06-14T09:14:39;101381.42;;;22.09;47.43
76728;BME280;65652;53.132;18.026;2023-06-14T09:17:08;101384.66;;;22.18;47.45
76728;BME280;65652;53.132;18.026;2023-06-14T09:19:35;101386.70;;;22.26;46.96
76728;BME280;65652;53.132;18.026;2023-06-14T09:22:04;101383.92;;;22.29;46.48
76728;BME280;65652;53.132;18.026;2023-06-14T09:24:30;101385.63;;;22.30;46.37
76728;BME280;65652;53.132;18.026;2023-06-14T09:26:57;101385.41;;;22.29;45.87
76728;BME280;65652;53.132;18.026;2023-06-14T09:29:24;101383.47;;;22.14;45.83
76728;BME280;65652;53.132;18.026;2023-06-14T09:31:53;101383.42;;;22.05;45.98
76728;BME280;65652;53.132;18.026;2023-06-14T09:34:21;101386.90;;;22.00;46.09
76728;BME280;65652;53.132;18.026;2023-06-14T09:36:50;101385.02;;;22.01;46.37
76728;BME280;65652;53.132;18.026;2023-06-14T09:39:17;101384.34;;;22.10;46.49
76728;BME280;65652;53.132;18.026;2023-06-14T09:41:44;101381.41;;;22.21;45.92
76728;BME280;65652;53.132;18.026;2023-06-14T09:44:11;101381.71;;;22.32;45.51
76728;BME280;65652;53.132;18.026;2023-06-14T09:46:41;101376.40;;;22.43;45.18
76728;BME280;65652;53.132;18.026;2023-06-14T09:49:08;101373.53;;;22.67;44.89
76728;BME280;65652;53.132;18.026;2023-06-14T09:51:42;101368.67;;;23.04;44.29
76728;BME280;65652;53.132;18.026;2023-06-14T09:54:20;101370.34;;;23.29;43.96
76728;BME280;65652;53.132;18.026;2023-06-14T09:56:51;101373.13;;;23.49;43.43
76728;BME280;65652;53.132;18.026;2023-06-14T09:59:26;101369.99;;;23.72;42.90
76728;BME280;65652;53.132;18.026;2023-06-14T10:01:58;101366.87;;;23.95;42.84
76728;BME280;65652;53.132;18.026;2023-06-14T10:04:29;101359.76;;;24.10;42.52
76728;BME280;65652;53.132;18.026;2023-06-14T10:06:58;101354.31;;;24.36;42.17
76728;BME280;65652;53.132;18.026;2023-06-14T10:09:26;101351.08;;;24.81;41.59
76728;BME280;65652;53.132;18.026;2023-06-14T10:11:53;101349.05;;;25.14;41.00
76728;BME280;65652;53.132;18.026;2023-06-14T10:14:20;101340.61;;;25.35;40.43
76728;BME280;65652;53.132;18.026;2023-06-14T10:17:01;101338.66;;;25.59;40.13
76728;BME280;65652;53.132;18.026;2023-06-14T10:19:48;101340.85;;;25.73;39.57
76728;BME280;65652;53.132;18.026;2023-06-14T10:22:27;101342.35;;;26.38;38.95
76728;BME280;65652;53.132;18.026;2023-06-14T10:24:56;101334.84;;;26.82;37.83
76728;BME280;65652;53.132;18.026;2023-06-14T10:27:23;101335.02;;;26.72;37.09
76728;BME280;65652;53.132;18.026;2023-06-14T10:32:23;101335.21;;;26.30;37.59
76728;BME280;65652;53.132;18.026;2023-06-14T10:35:00;101333.21;;;26.18;37.73
76728;BME280;65652;53.132;18.026;2023-06-14T10:37:28;101333.97;;;26.15;37.64
76728;BME280;65652;53.132;18.026;2023-06-14T10:39:55;101331.96;;;26.29;37.30
76728;BME280;65652;53.132;18.026;2023-06-14T10:42:27;101323.88;;;26.78;36.82
76728;BME280;65652;53.132;18.026;2023-06-14T10:44:55;101320.10;;;27.19;36.01
76728;BME280;65652;53.132;18.026;2023-06-14T10:47:26;101314.49;;;27.40;35.66
76728;BME280;65652;53.132;18.026;2023-06-14T10:49:55;101314.52;;;27.83;35.27
76728;BME280;65652;53.132;18.026;2023-06-14T10:52:24;101308.54;;;28.25;34.99
76728;BME280;65652;53.132;18.026;2023-06-14T10:55:10;101301.21;;;28.59;34.08
76728;BME280;65652;53.132;18.026;2023-06-14T10:57:43;101300.54;;;29.09;33.09
76728;BME280;65652;53.132;18.026;2023-06-14T11:00:13;101295.70;;;29.50;32.69
76728;BME280;65652;53.132;18.026;2023-06-14T11:05:14;101300.45;;;30.06;30.95
76728;BME280;65652;53.132;18.026;2023-06-14T11:10:36;101289.84;;;30.05;30.63
76728;BME280;65652;53.132;18.026;2023-06-14T11:13:09;101287.62;;;30.09;30.81
76728;BME280;65652;53.132;18.026;2023-06-14T11:15:37;101283.55;;;30.45;30.63
76728;BME280;65652;53.132;18.026;2023-06-14T11:18:08;101286.35;;;30.70;29.61
76728;BME280;65652;53.132;18.026;2023-06-14T11:20:39;101281.28;;;31.03;29.69
76728;BME280;65652;53.132;18.026;2023-06-14T11:23:06;101277.33;;;31.11;29.30
76728;BME280;65652;53.132;18.026;2023-06-14T11:25:33;101276.58;;;31.12;28.93
76728;BME280;65652;53.132;18.026;2023-06-14T11:28:00;101277.36;;;31.30;27.89
76728;BME280;65652;53.132;18.026;2023-06-14T11:30:27;101275.27;;;31.12;27.27
76728;BME280;65652;53.132;18.026;2023-06-14T11:32:55;101275.23;;;30.77;26.86
76728;BME280;65652;53.132;18.026;2023-06-14T11:35:22;101273.23;;;30.45;27.33
76728;BME280;65652;53.132;18.026;2023-06-14T11:37:56;101268.79;;;30.17;27.20
76728;BME280;65652;53.132;18.026;2023-06-14T11:40:25;101273.91;;;29.87;27.51
76728;BME280;65652;53.132;18.026;2023-06-14T11:42:59;101274.92;;;29.69;27.68
76728;BME280;65652;53.132;18.026;2023-06-14T11:45:27;101276.05;;;29.65;27.54
76728;BME280;65652;53.132;18.026;2023-06-14T11:47:54;101276.38;;;29.46;27.52
76728;BME280;65652;53.132;18.026;2023-06-14T11:50:23;101273.39;;;29.20;28.22
76728;BME280;65652;53.132;18.026;2023-06-14T11:52:54;101273.54;;;29.10;28.48
76728;BME280;65652;53.132;18.026;2023-06-14T11:55:22;101269.93;;;29.00;28.79
76728;BME280;65652;53.132;18.026;2023-06-14T11:57:49;101268.30;;;28.85;29.14
76728;BME280;65652;53.132;18.026;2023-06-14T12:00:17;101268.79;;;28.65;29.81
76728;BME280;65652;53.132;18.026;2023-06-14T12:02:55;101272.55;;;28.30;29.47
76728;BME280;65652;53.132;18.026;2023-06-14T12:05:24;101272.02;;;27.88;29.70
76728;BME280;65652;53.132;18.026;2023-06-14T12:07:58;101268.69;;;27.61;29.94
76728;BME280;65652;53.132;18.026;2023-06-14T12:10:27;101268.98;;;27.38;30.12
76728;BME280;65652;53.132;18.026;2023-06-14T12:12:58;101270.19;;;27.12;30.45
76728;BME280;65652;53.132;18.026;2023-06-14T12:15:29;101269.65;;;26.83;30.96
76728;BME280;65652;53.132;18.026;2023-06-14T12:17:59;101272.66;;;26.54;31.39
76728;BME280;65652;53.132;18.026;2023-06-14T12:20:29;101273.10;;;26.24;31.73
76728;BME280;65652;53.132;18.026;2023-06-14T12:23:03;101272.86;;;25.97;32.13
76728;BME280;65652;53.132;18.026;2023-06-14T12:25:35;101273.92;;;25.59;32.40
76728;BME280;65652;53.132;18.026;2023-06-14T12:28:09;101273.56;;;25.35;32.74
76728;BME280;65652;53.132;18.026;2023-06-14T12:30:37;101275.42;;;25.06;33.27
76728;BME280;65652;53.132;18.026;2023-06-14T12:33:05;101272.50;;;24.84;33.47
76728;BME280;65652;53.132;18.026;2023-06-14T12:35:32;101273.33;;;24.69;33.81
76728;BME280;65652;53.132;18.026;2023-06-14T12:37:59;101270.73;;;24.53;34.13
76728;BME280;65652;53.132;18.026;2023-06-14T12:40:25;101271.38;;;24.31;34.13
76728;BME280;65652;53.132;18.026;2023-06-14T12:42:53;101274.11;;;24.11;34.33
76728;BME280;65652;53.132;18.026;2023-06-14T12:45:20;101280.17;;;23.92;34.23
76728;BME280;65652;53.132;18.026;2023-06-14T12:47:47;101283.92;;;23.69;34.49
76728;BME280;65652;53.132;18.026;2023-06-14T12:50:13;101287.69;;;23.51;34.74
76728;BME280;65652;53.132;18.026;2023-06-14T12:52:40;101289.51;;;23.37;35.12
76728;BME280;65652;53.132;18.026;2023-06-14T12:55:07;101295.02;;;23.33;35.50